createdAt,value
2019-03-28T00:01:39.456Z,31.27
2019-03-28T00:04:08.083Z,30.00
2019-03-28T00:06:42.400Z,29.57
2019-03-28T00:09:10.636Z,29.87
2019-03-28T00:11:38.947Z,29.00
2019-03-28T00:14:07.204Z,29.35
2019-03-28T00:16:35.806Z,32.30
2019-03-28T00:19:04.388Z,31.07
2019-03-28T00:21:32.883Z,30.08
2019-03-28T00:24:11.808Z,29.67
2019-03-28T00:26:40.058Z,31.00
2019-03-28T00:29:08.567Z,29.80
2019-03-28T00:31:37.056Z,29.48
2019-03-28T00:34:05.639Z,30.12
2019-03-28T00:36:33.881Z,31.23
2019-03-28T00:39:02.403Z,32.10
2019-03-28T00:41:30.996Z,30.62
2019-03-28T00:43:59.248Z,30.57
2019-03-28T00:46:27.764Z,29.98
2019-03-28T00:48:56.346Z,28.50
2019-03-28T00:51:25.150Z,28.98
2019-03-28T00:53:53.491Z,29.87
2019-03-28T00:56:21.737Z,28.07
2019-03-28T00:58:49.991Z,29.87
2019-03-28T01:01:18.580Z,28.90
2019-03-28T01:03:46.843Z,29.63
2019-03-28T01:06:15.083Z,28.98
2019-03-28T01:08:43.327Z,28.90
2019-03-28T01:11:12.123Z,28.73
2019-03-28T01:13:40.752Z,31.30
2019-03-28T01:16:09.276Z,29.07
2019-03-28T01:18:38.685Z,29.07
2019-03-28T01:21:06.950Z,28.27
2019-03-28T01:23:35.202Z,28.80
2019-03-28T01:26:04.035Z,28.38
2019-03-28T01:28:32.283Z,27.98
2019-03-28T01:31:00.546Z,28.80
2019-03-28T01:33:28.781Z,28.62
2019-03-28T01:35:57.288Z,27.52
2019-03-28T01:38:25.531Z,27.82
2019-03-28T01:40:53.787Z,27.25
2019-03-28T01:43:22.038Z,26.60
2019-03-28T01:45:50.275Z,26.75
2019-03-28T01:48:18.517Z,27.35
2019-03-28T01:50:47.052Z,24.72
2019-03-28T01:53:15.299Z,26.77
2019-03-28T01:55:43.809Z,26.27
2019-03-28T01:58:12.058Z,23.80
2019-03-28T02:00:40.317Z,25.05
2019-03-28T02:03:08.875Z,25.02
2019-03-28T02:05:37.114Z,25.68
2019-03-28T02:08:05.358Z,24.27
2019-03-28T02:10:33.911Z,25.62
2019-03-28T02:13:02.495Z,24.45
2019-03-28T02:15:31.092Z,26.42
2019-03-28T02:17:59.341Z,24.27
2019-03-28T02:20:27.668Z,25.75
2019-03-28T02:22:56.230Z,26.20
2019-03-28T02:25:24.740Z,23.42
2019-03-28T02:27:52.979Z,25.80
2019-03-28T02:30:27.246Z,25.70
2019-03-28T02:32:55.805Z,25.50
2019-03-28T02:35:24.064Z,24.85
2019-03-28T02:37:52.316Z,25.17
2019-03-28T02:40:20.853Z,26.02
2019-03-28T02:42:49.451Z,26.37
2019-03-28T02:45:17.774Z,24.12
2019-03-28T02:47:46.024Z,25.23
2019-03-28T02:50:14.272Z,25.95
2019-03-28T02:52:42.875Z,24.98
2019-03-28T02:55:11.127Z,25.90
2019-03-28T02:57:42.097Z,25.23
2019-03-28T03:00:09.628Z,26.23
2019-03-28T03:02:37.864Z,25.45
2019-03-28T03:05:07.556Z,25.37
2019-03-28T03:07:36.140Z,26.60
2019-03-28T03:10:07.728Z,25.62
2019-03-28T03:12:36.381Z,27.77
2019-03-28T03:15:06.920Z,26.87
2019-03-28T03:17:35.504Z,26.48
2019-03-28T03:20:06.085Z,26.40
2019-03-28T03:22:34.631Z,27.58
2019-03-28T03:25:03.359Z,26.45
2019-03-28T03:27:31.845Z,27.77
2019-03-28T03:30:00.689Z,27.07
2019-03-28T03:32:29.007Z,26.75
2019-03-28T03:35:00.630Z,26.68
2019-03-28T03:37:30.125Z,26.57
2019-03-28T03:39:58.506Z,27.05
2019-03-28T03:42:26.748Z,26.45
2019-03-28T03:44:54.993Z,27.30
2019-03-28T03:47:23.240Z,25.97
2019-03-28T03:49:51.496Z,25.05
2019-03-28T03:52:20.130Z,25.37
2019-03-28T03:54:48.371Z,25.97
2019-03-28T03:57:16.911Z,25.85
2019-03-28T03:59:45.479Z,27.30
2019-03-28T04:02:13.744Z,25.92
2019-03-28T04:04:41.983Z,25.37
2019-03-28T04:07:10.529Z,25.23
2019-03-28T04:09:38.822Z,24.80
2019-03-28T04:12:07.426Z,25.10
2019-03-28T04:14:35.721Z,25.88
2019-03-28T04:17:03.981Z,24.07
2019-03-28T04:19:32.443Z,24.95
2019-03-28T04:22:00.765Z,25.00
2019-03-28T04:24:29.020Z,24.72
2019-03-28T04:26:57.339Z,25.75
2019-03-28T04:29:25.979Z,25.00
2019-03-28T04:31:54.243Z,25.88
2019-03-28T04:34:22.556Z,26.10
2019-03-28T04:36:51.154Z,25.55
2019-03-28T04:39:19.731Z,24.20
2019-03-28T04:41:47.996Z,25.20
2019-03-28T04:44:16.636Z,25.30
2019-03-28T04:46:45.369Z,25.48
2019-03-28T04:49:15.716Z,28.38
2019-03-28T04:51:44.083Z,27.62
2019-03-28T04:54:12.669Z,25.50
2019-03-28T04:56:41.223Z,24.92
2019-03-28T04:59:09.747Z,25.80
2019-03-28T05:01:38.004Z,25.17
2019-03-28T05:04:06.347Z,25.62
2019-03-28T05:06:37.739Z,24.18
2019-03-28T05:09:05.731Z,25.37
2019-03-28T05:11:34.001Z,24.47
2019-03-28T05:14:02.509Z,25.97
2019-03-28T05:16:30.767Z,26.23
2019-03-28T05:18:59.011Z,27.27
2019-03-28T05:21:27.267Z,28.45
2019-03-28T05:23:55.502Z,28.42
2019-03-28T05:26:23.766Z,28.02
2019-03-28T05:28:57.315Z,26.40
2019-03-28T05:31:22.905Z,28.73
2019-03-28T05:33:51.151Z,28.02
2019-03-28T05:36:19.383Z,28.55
2019-03-28T05:38:47.648Z,29.48
2019-03-28T05:41:17.441Z,30.50
2019-03-28T05:43:46.019Z,25.68
2019-03-28T05:46:14.264Z,27.35
2019-03-28T05:48:42.513Z,25.92
2019-03-28T05:51:10.761Z,25.43
2019-03-28T05:53:39.017Z,26.07
2019-03-28T05:56:07.264Z,26.68
2019-03-28T05:58:35.540Z,27.75
2019-03-28T06:01:03.777Z,26.52
2019-03-28T06:03:32.025Z,27.10
2019-03-28T06:06:00.263Z,26.23
2019-03-28T06:08:28.519Z,29.23
2019-03-28T06:10:57.024Z,29.45
2019-03-28T06:13:25.635Z,30.75
2019-03-28T06:15:53.892Z,31.30
2019-03-28T06:18:23.053Z,30.72
2019-03-28T06:20:52.652Z,26.45
2019-03-28T06:23:21.922Z,27.75
2019-03-28T06:25:50.243Z,25.55
2019-03-28T06:28:19.483Z,23.00
2019-03-28T06:30:47.732Z,21.15
2019-03-28T06:33:15.982Z,18.48
2019-03-28T06:35:44.237Z,28.87
2019-03-28T06:38:12.466Z,22.95
2019-03-28T06:40:40.723Z,20.48
2019-03-28T06:43:08.976Z,18.75
2019-03-28T06:45:38.509Z,20.27
2019-03-28T06:48:06.743Z,19.10
2019-03-28T06:50:35.988Z,19.40
2019-03-28T06:53:04.292Z,27.05
2019-03-28T06:55:32.571Z,21.82
2019-03-28T06:58:01.071Z,21.15
2019-03-28T07:00:29.320Z,20.88
2019-03-28T07:02:58.823Z,20.72
2019-03-28T07:05:27.081Z,20.85
2019-03-28T07:07:55.587Z,20.70
2019-03-28T07:10:23.864Z,23.35
2019-03-28T07:12:53.064Z,20.77
2019-03-28T07:15:21.324Z,25.45
2019-03-28T07:17:49.856Z,21.10
2019-03-28T07:20:19.040Z,20.40
2019-03-28T07:22:47.540Z,20.43
2019-03-28T07:25:15.794Z,21.12
2019-03-28T07:27:44.390Z,22.13
2019-03-28T07:30:13.106Z,19.85
2019-03-28T07:32:43.322Z,20.72
2019-03-28T07:35:11.308Z,20.17
2019-03-28T07:37:39.881Z,20.92
2019-03-28T07:40:08.121Z,20.02
2019-03-28T07:42:36.375Z,22.77
2019-03-28T07:45:06.964Z,18.17
2019-03-28T07:47:35.212Z,21.07
2019-03-28T07:50:06.191Z,19.98
2019-03-28T07:52:35.370Z,19.73
2019-03-28T07:55:05.628Z,18.85
2019-03-28T07:57:34.408Z,18.00
2019-03-28T08:00:04.316Z,19.65
2019-03-28T08:02:32.991Z,20.68
2019-03-28T08:05:02.362Z,16.37
2019-03-28T08:07:44.009Z,17.60
2019-03-28T08:10:00.742Z,16.35
2019-03-28T08:12:29.067Z,20.12
2019-03-28T08:14:57.318Z,14.65
2019-03-28T08:17:25.871Z,14.03
2019-03-28T08:19:54.138Z,17.23
2019-03-28T08:22:22.747Z,13.00
2019-03-28T08:24:51.004Z,15.23
2019-03-28T08:27:19.603Z,13.32
2019-03-28T08:29:48.197Z,13.72
2019-03-28T08:32:18.458Z,13.13
2019-03-28T08:34:46.752Z,12.63
2019-03-28T08:37:14.988Z,14.60
2019-03-28T08:39:44.663Z,13.18
2019-03-28T08:42:14.063Z,13.78
2019-03-28T08:44:43.720Z,13.13
2019-03-28T08:47:11.965Z,12.37
2019-03-28T08:49:40.216Z,14.40
2019-03-28T08:52:11.623Z,12.75
2019-03-28T08:54:39.706Z,17.20
2019-03-28T08:57:07.962Z,13.03
2019-03-28T08:59:36.221Z,12.25
2019-03-28T09:02:05.137Z,11.30
2019-03-28T09:04:34.453Z,11.65
2019-03-28T09:07:02.690Z,11.12
2019-03-28T09:09:30.939Z,13.53
2019-03-28T09:12:00.084Z,12.47
2019-03-28T09:14:31.685Z,12.60
2019-03-28T09:16:58.631Z,13.35
2019-03-28T09:19:26.897Z,12.90
2019-03-28T09:21:55.499Z,14.28
2019-03-28T09:24:24.079Z,12.43
2019-03-28T09:26:52.335Z,13.38
2019-03-28T09:29:20.859Z,12.10
2019-03-28T09:31:49.373Z,12.45
2019-03-28T09:34:17.624Z,12.93
2019-03-28T09:36:46.899Z,12.88
2019-03-28T09:39:16.100Z,12.47
2019-03-28T09:41:44.710Z,12.35
2019-03-28T09:44:13.296Z,11.55
2019-03-28T09:46:42.804Z,11.22
2019-03-28T09:49:11.391Z,10.95
2019-03-28T09:51:39.979Z,10.38
2019-03-28T09:54:08.227Z,11.05
2019-03-28T09:56:37.723Z,11.63
2019-03-28T09:59:05.961Z,10.78
2019-03-28T10:01:34.203Z,10.95
2019-03-28T10:04:02.471Z,10.60
2019-03-28T10:06:30.719Z,11.25
2019-03-28T10:08:58.980Z,10.70
2019-03-28T10:11:27.283Z,10.65
2019-03-28T10:13:55.839Z,11.00
2019-03-28T10:16:24.429Z,11.20
2019-03-28T10:18:53.011Z,11.25
2019-03-28T10:21:21.609Z,11.63
2019-03-28T10:23:49.884Z,10.65
2019-03-28T10:26:18.197Z,10.18
2019-03-28T10:28:46.444Z,10.85
2019-03-28T10:31:16.600Z,12.07
2019-03-28T10:33:44.948Z,12.75
2019-03-28T10:36:13.216Z,12.28
2019-03-28T10:38:41.465Z,13.15
2019-03-28T10:41:09.707Z,11.83
2019-03-28T10:43:38.275Z,9.95
2019-03-28T10:46:06.545Z,11.88
2019-03-28T10:48:34.791Z,10.95
2019-03-28T10:51:03.324Z,11.20
2019-03-28T10:53:31.928Z,12.23
2019-03-28T10:56:00.197Z,13.58
2019-03-28T10:58:28.439Z,10.58
2019-03-28T11:00:56.747Z,11.50
2019-03-28T11:03:25.015Z,12.13
2019-03-28T11:05:53.632Z,11.70
2019-03-28T11:08:22.217Z,11.97
2019-03-28T11:10:52.403Z,11.08
2019-03-28T11:13:20.920Z,11.22
2019-03-28T11:15:49.196Z,11.68
2019-03-28T11:18:17.435Z,11.20
2019-03-28T11:20:45.691Z,10.72
2019-03-28T11:23:13.956Z,11.38
2019-03-28T11:25:45.191Z,10.80
2019-03-28T11:28:13.503Z,11.78
2019-03-28T11:30:41.787Z,11.28
2019-03-28T11:33:10.106Z,12.28
2019-03-28T11:35:38.356Z,12.37
2019-03-28T11:38:09.468Z,13.05
2019-03-28T11:40:36.592Z,13.35
2019-03-28T11:43:04.849Z,12.20
2019-03-28T11:45:33.167Z,10.88
2019-03-28T11:48:01.428Z,10.78
2019-03-28T11:50:29.669Z,10.35
2019-03-28T11:52:57.926Z,10.53
2019-03-28T11:55:26.181Z,9.98
2019-03-28T11:57:56.449Z,9.40
2019-03-28T12:00:24.699Z,9.78
2019-03-28T12:02:52.979Z,9.55
2019-03-28T12:05:21.242Z,9.50
2019-03-28T12:07:49.750Z,8.73
2019-03-28T12:10:19.271Z,7.90
2019-03-28T12:12:47.858Z,7.55
2019-03-28T12:15:16.436Z,6.70
2019-03-28T12:17:45.015Z,7.40
2019-03-28T12:20:13.613Z,7.58
2019-03-28T12:22:42.197Z,7.65
2019-03-28T12:25:10.439Z,8.10
2019-03-28T12:27:38.690Z,8.08
2019-03-28T12:30:08.682Z,8.18
2019-03-28T12:32:36.941Z,8.20
2019-03-28T12:35:06.769Z,8.13
2019-03-28T12:37:35.027Z,8.33
2019-03-28T12:40:05.558Z,8.73
2019-03-28T12:42:34.870Z,9.10
2019-03-28T12:45:05.631Z,8.05
2019-03-28T12:47:42.189Z,7.90
2019-03-28T12:50:10.732Z,7.60
2019-03-28T12:52:39.025Z,7.90
2019-03-28T12:55:08.388Z,7.60
2019-03-28T12:57:37.029Z,7.03
2019-03-28T13:00:08.275Z,7.47
2019-03-28T13:02:38.176Z,6.53
2019-03-28T13:05:09.435Z,6.30
2019-03-28T13:07:37.925Z,6.30
2019-03-28T13:10:07.467Z,6.12
2019-03-28T13:12:36.054Z,5.87
2019-03-28T13:15:04.524Z,5.28
2019-03-28T13:17:33.123Z,6.67
2019-03-28T13:20:01.375Z,6.42
2019-03-28T13:22:29.624Z,6.60
2019-03-28T13:24:58.875Z,6.50
2019-03-28T13:27:27.119Z,6.15
2019-03-28T13:29:56.685Z,6.20
2019-03-28T13:32:24.923Z,7.30
2019-03-28T13:34:53.203Z,6.47
2019-03-28T13:37:21.456Z,6.35
2019-03-28T13:39:49.698Z,6.50
2019-03-28T13:42:18.882Z,7.10
2019-03-28T13:44:47.175Z,7.00
2019-03-28T13:47:15.467Z,6.70
2019-03-28T13:49:43.715Z,6.10
2019-03-28T13:52:12.251Z,6.42
2019-03-28T13:54:40.499Z,6.30
2019-03-28T13:57:09.096Z,7.20
2019-03-28T13:59:37.346Z,5.42
2019-03-28T14:02:07.093Z,5.20
2019-03-28T14:04:35.779Z,4.60
2019-03-28T14:07:04.292Z,4.35
2019-03-28T14:09:32.534Z,4.92
2019-03-28T14:12:00.779Z,6.25
2019-03-28T14:14:29.419Z,4.62
2019-03-28T14:16:57.700Z,4.60
2019-03-28T14:19:25.962Z,3.90
2019-03-28T14:21:54.455Z,4.58
2019-03-28T14:24:22.697Z,5.00
2019-03-28T14:26:51.227Z,4.80
2019-03-28T14:29:19.486Z,4.45
2019-03-28T14:31:47.799Z,4.72
2019-03-28T14:34:16.043Z,4.60
2019-03-28T14:36:44.656Z,4.70
2019-03-28T14:39:13.264Z,4.55
2019-03-28T14:41:41.839Z,4.97
2019-03-28T14:44:10.075Z,4.92
2019-03-28T14:46:40.238Z,5.05
2019-03-28T14:49:08.852Z,4.80
2019-03-28T14:51:37.454Z,5.40
2019-03-28T14:54:06.112Z,5.15
2019-03-28T14:56:34.687Z,5.72
2019-03-28T14:59:03.208Z,5.70
2019-03-28T15:01:31.432Z,5.28
2019-03-28T15:03:59.683Z,5.30
2019-03-28T15:06:28.220Z,5.40
2019-03-28T15:08:56.808Z,5.97
2019-03-28T15:11:25.432Z,85.32
2019-03-28T15:13:53.921Z,13.18
2019-03-28T15:16:22.479Z,6.35
2019-03-28T15:18:51.637Z,5.75
2019-03-28T15:21:20.007Z,6.50
2019-03-28T15:23:48.238Z,6.08
2019-03-28T15:26:16.523Z,5.90
2019-03-28T15:28:44.824Z,6.67
2019-03-28T15:31:13.075Z,6.58
2019-03-28T15:33:41.343Z,28.60
2019-03-28T15:36:09.592Z,6.40
2019-03-28T15:38:37.840Z,6.00
2019-03-28T15:41:06.162Z,5.92
2019-03-28T15:43:34.791Z,6.78
2019-03-28T15:46:03.039Z,6.47
2019-03-28T15:48:31.564Z,6.55
2019-03-28T15:50:59.846Z,6.42
2019-03-28T15:53:28.097Z,7.03
2019-03-28T15:55:56.711Z,7.00
2019-03-28T15:58:24.955Z,6.20
2019-03-28T16:00:53.471Z,7.92
2019-03-28T16:03:22.060Z,5.87
2019-03-28T16:05:58.143Z,7.58
2019-03-28T16:08:20.875Z,8.58
2019-03-28T16:10:49.195Z,6.30
2019-03-28T16:13:17.741Z,6.28
2019-03-28T16:15:45.991Z,6.10
2019-03-28T16:18:14.262Z,6.17
2019-03-28T16:20:42.527Z,6.67
2019-03-28T16:23:10.767Z,6.65
2019-03-28T16:25:39.365Z,6.90
2019-03-28T16:28:07.674Z,7.62
2019-03-28T16:30:37.183Z,6.53
2019-03-28T16:33:05.875Z,6.40
2019-03-28T16:35:34.144Z,6.70
2019-03-28T16:38:02.377Z,6.80
2019-03-28T16:40:31.172Z,6.45
2019-03-28T16:42:59.567Z,6.70
2019-03-28T16:45:27.839Z,6.45
2019-03-28T16:47:56.080Z,6.85
2019-03-28T16:50:24.327Z,8.30
2019-03-28T16:52:52.899Z,7.55
2019-03-28T16:55:26.513Z,7.10
2019-03-28T16:57:51.399Z,7.22
2019-03-28T17:00:19.639Z,7.05
2019-03-28T17:02:47.906Z,7.55
2019-03-28T17:05:16.448Z,6.75
2019-03-28T17:07:45.286Z,7.87
2019-03-28T17:10:17.126Z,10.80
2019-03-28T17:12:45.574Z,7.78
2019-03-28T17:15:14.036Z,7.35
2019-03-28T17:17:42.660Z,6.97
2019-03-28T17:20:11.243Z,7.92
2019-03-28T17:22:39.505Z,7.80
2019-03-28T17:25:07.763Z,7.47
2019-03-28T17:27:36.287Z,7.85
2019-03-28T17:30:07.235Z,8.08
2019-03-28T17:32:36.918Z,7.65
2019-03-28T17:35:06.099Z,7.83
2019-03-28T17:37:34.375Z,8.05
2019-03-28T17:40:02.915Z,8.10
2019-03-28T17:42:31.501Z,7.87
2019-03-28T17:44:59.861Z,8.08
2019-03-28T17:47:28.473Z,7.45
2019-03-28T17:49:56.719Z,7.08
2019-03-28T17:52:24.972Z,7.92
2019-03-28T17:54:53.531Z,7.62
2019-03-28T17:57:21.780Z,9.75
2019-03-28T17:59:50.029Z,10.05
2019-03-28T18:02:18.312Z,14.35
2019-03-28T18:04:48.132Z,21.05
2019-03-28T18:07:17.351Z,15.43
2019-03-28T18:09:45.797Z,17.75
2019-03-28T18:12:14.076Z,15.30
2019-03-28T18:14:42.389Z,30.10
2019-03-28T18:17:11.091Z,33.88
2019-03-28T18:19:39.763Z,14.43
2019-03-28T18:22:08.188Z,12.82
2019-03-28T18:24:36.487Z,37.28
2019-03-28T18:27:05.059Z,110.22
2019-03-28T18:29:35.896Z,41.53
2019-03-28T18:32:04.216Z,29.77
2019-03-28T18:34:32.479Z,105.72
2019-03-28T18:37:00.731Z,118.95
2019-03-28T18:39:29.343Z,147.93
2019-03-28T18:41:57.592Z,37.98
2019-03-28T18:44:26.199Z,16.00
2019-03-28T18:46:54.784Z,11.08
2019-03-28T18:49:23.961Z,12.50
2019-03-28T18:51:52.435Z,13.83
2019-03-28T18:54:20.826Z,33.48
2019-03-28T18:56:49.647Z,34.67
2019-03-28T18:59:18.178Z,38.15
2019-03-28T19:01:46.423Z,55.45
2019-03-28T19:04:14.933Z,47.70
2019-03-28T19:06:43.605Z,38.05
2019-03-28T19:09:12.275Z,58.23
2019-03-28T19:11:41.039Z,56.15
2019-03-28T19:14:09.621Z,56.63
2019-03-28T19:16:38.155Z,39.23
2019-03-28T19:19:06.727Z,22.85
2019-03-28T19:21:35.004Z,29.35
2019-03-28T19:24:03.459Z,21.42
2019-03-28T19:26:31.896Z,31.55
2019-03-28T19:29:00.145Z,23.12
2019-03-28T19:31:28.397Z,21.12
2019-03-28T19:33:57.033Z,29.48
2019-03-28T19:36:25.293Z,15.48
2019-03-28T19:38:53.793Z,15.05
2019-03-28T19:41:22.319Z,20.50
2019-03-28T19:43:50.570Z,13.15
2019-03-28T19:46:19.147Z,16.77
2019-03-28T19:48:48.655Z,15.03
2019-03-28T19:51:17.343Z,12.65
2019-03-28T19:53:45.642Z,14.40
2019-03-28T19:56:13.956Z,13.55
2019-03-28T19:58:42.215Z,14.93
2019-03-28T20:01:10.583Z,14.13
2019-03-28T20:03:38.903Z,12.25
2019-03-28T20:06:07.163Z,12.37
2019-03-28T20:08:35.418Z,12.80
2019-03-28T20:11:03.788Z,12.18
2019-03-28T20:13:32.198Z,12.25
2019-03-28T20:16:00.972Z,12.30
2019-03-28T20:18:29.671Z,12.35
2019-03-28T20:20:57.910Z,10.55
2019-03-28T20:23:26.429Z,12.35
2019-03-28T20:25:55.231Z,12.80
2019-03-28T20:28:26.917Z,13.03
2019-03-28T20:30:56.511Z,12.03
2019-03-28T20:33:25.346Z,13.20
2019-03-28T20:36:11.794Z,13.55
2019-03-28T20:38:24.448Z,12.65
2019-03-28T20:40:52.804Z,12.53
2019-03-28T20:43:21.245Z,11.95
2019-03-28T20:45:49.860Z,12.78
2019-03-28T20:48:18.451Z,12.05
2019-03-28T20:50:46.747Z,12.55
2019-03-28T20:53:16.354Z,12.90
2019-03-28T20:55:45.599Z,13.22
2019-03-28T20:58:14.703Z,11.18
2019-03-28T21:00:45.462Z,12.70
2019-03-28T21:03:15.029Z,15.10
2019-03-28T21:05:44.371Z,14.40
2019-03-28T21:08:12.789Z,16.32
2019-03-28T21:10:41.030Z,25.90
2019-03-28T21:13:09.844Z,24.52
2019-03-28T21:15:39.981Z,23.77
2019-03-28T21:18:08.556Z,19.85
2019-03-28T21:20:37.559Z,18.90
2019-03-28T21:23:06.264Z,18.55
2019-03-28T21:25:35.400Z,18.15
2019-03-28T21:28:03.644Z,18.30
2019-03-28T21:30:32.335Z,19.45
2019-03-28T21:33:00.942Z,20.15
2019-03-28T21:35:29.234Z,25.92
2019-03-28T21:37:57.877Z,21.17
2019-03-28T21:40:26.194Z,23.75
2019-03-28T21:42:54.515Z,24.47
2019-03-28T21:45:23.031Z,25.75
2019-03-28T21:47:52.637Z,24.32
2019-03-28T21:50:21.394Z,25.25
2019-03-28T21:52:49.800Z,25.05
2019-03-28T21:55:18.115Z,24.23
2019-03-28T21:57:46.696Z,23.00
2019-03-28T22:00:15.766Z,21.85
2019-03-28T22:02:44.097Z,22.22
2019-03-28T22:05:12.337Z,20.20
2019-03-28T22:07:41.127Z,20.10
2019-03-28T22:10:10.476Z,21.25
2019-03-28T22:12:38.725Z,20.70
2019-03-28T22:15:07.587Z,22.40
2019-03-28T22:17:36.298Z,24.20
2019-03-28T22:20:06.625Z,23.45
2019-03-28T22:22:34.863Z,22.20
2019-03-28T22:25:03.604Z,22.93
2019-03-28T22:27:32.304Z,22.50
2019-03-28T22:30:01.010Z,23.83
2019-03-28T22:32:29.569Z,21.20
2019-03-28T22:34:58.083Z,19.30
2019-03-28T22:37:26.660Z,20.23
2019-03-28T22:39:55.231Z,17.27
2019-03-28T22:42:24.133Z,16.97
2019-03-28T22:44:54.366Z,18.45
2019-03-28T22:47:23.537Z,17.15
2019-03-28T22:49:52.054Z,15.03
2019-03-28T22:52:20.627Z,14.78
2019-03-28T22:54:49.216Z,14.38
2019-03-28T22:57:17.466Z,14.63
2019-03-28T22:59:47.359Z,13.90
2019-03-28T23:02:15.951Z,11.25
2019-03-28T23:04:44.331Z,10.78
2019-03-28T23:07:12.865Z,13.53
2019-03-28T23:09:41.130Z,12.33
2019-03-28T23:12:09.643Z,11.97
2019-03-28T23:14:38.807Z,13.03
2019-03-28T23:17:07.992Z,12.93
2019-03-28T23:19:48.453Z,13.78
2019-03-28T23:22:19.474Z,13.15
2019-03-28T23:24:47.727Z,15.30
2019-03-28T23:27:16.316Z,15.10
2019-03-28T23:29:44.577Z,14.25
2019-03-28T23:32:13.202Z,12.93
2019-03-28T23:34:41.509Z,14.70
2019-03-28T23:37:09.814Z,14.90
2019-03-28T23:39:38.131Z,13.45
2019-03-28T23:42:06.386Z,13.95
2019-03-28T23:44:34.619Z,13.85
2019-03-28T23:47:03.856Z,14.70
2019-03-28T23:49:32.194Z,14.13
2019-03-28T23:52:00.763Z,13.03
2019-03-28T23:54:28.994Z,14.55
2019-03-28T23:56:57.244Z,14.68
2019-03-28T23:59:25.818Z,13.80
